createdAt,value
2023-01-13T00:01:33.300Z,10.93
2023-01-13T00:04:02.203Z,10.97
2023-01-13T00:06:31.077Z,11.03
2023-01-13T00:08:59.878Z,11.07
2023-01-13T00:11:29.762Z,11.07
2023-01-13T00:13:58.201Z,11.14
2023-01-13T00:16:26.990Z,11.21
2023-01-13T00:18:55.570Z,11.25
2023-01-13T00:21:26.226Z,11.32
2023-01-13T00:23:56.459Z,11.35
2023-01-13T00:26:27.077Z,11.35
2023-01-13T00:28:59.908Z,11.34
2023-01-13T00:31:30.134Z,11.35
2023-01-13T00:33:59.855Z,11.35
2023-01-13T00:36:29.120Z,11.34
2023-01-13T00:38:58.026Z,11.34
2023-01-13T00:41:28.014Z,11.32
2023-01-13T00:43:55.591Z,11.24
2023-01-13T00:46:33.260Z,11.16
2023-01-13T00:49:02.122Z,11.05
2023-01-13T00:51:30.927Z,11.00
2023-01-13T00:53:59.514Z,10.93
2023-01-13T00:56:39.782Z,10.90
2023-01-13T00:59:08.852Z,10.88
2023-01-13T01:01:39.231Z,10.83
2023-01-13T01:04:08.324Z,10.85
2023-01-13T01:06:36.850Z,10.81
2023-01-13T01:09:06.594Z,10.80
2023-01-13T01:11:36.326Z,10.83
2023-01-13T01:14:05.794Z,10.84
2023-01-13T01:16:35.297Z,10.85
2023-01-13T01:19:05.530Z,10.85
2023-01-13T01:21:35.271Z,10.90
2023-01-13T01:24:05.176Z,10.92
2023-01-13T01:26:34.451Z,10.96
2023-01-13T01:29:03.513Z,10.98
2023-01-13T01:31:33.239Z,11.05
2023-01-13T01:34:02.795Z,11.07
2023-01-13T01:36:33.672Z,11.07
2023-01-13T01:39:02.385Z,11.10
2023-01-13T01:41:33.261Z,11.15
2023-01-13T01:44:03.144Z,11.17
2023-01-13T01:46:34.251Z,11.18
2023-01-13T01:49:12.641Z,11.12
2023-01-13T01:51:46.897Z,11.07
2023-01-13T01:54:21.214Z,10.99
2023-01-13T01:56:50.576Z,10.92
2023-01-13T01:59:19.622Z,10.85
2023-01-13T02:01:50.285Z,10.77
2023-01-13T02:04:22.233Z,10.73
2023-01-13T02:06:54.031Z,10.69
2023-01-13T02:09:23.055Z,10.67
2023-01-13T02:12:09.008Z,10.73
2023-01-13T02:14:39.227Z,10.72
2023-01-13T02:17:22.987Z,10.73
2023-01-13T02:20:30.046Z,10.73
2023-01-13T02:23:45.325Z,10.71
2023-01-13T02:27:05.820Z,10.65
2023-01-13T02:30:09.972Z,10.61
2023-01-13T02:32:47.526Z,10.55
2023-01-13T02:35:24.085Z,10.51
2023-01-13T02:37:53.460Z,10.48
2023-01-13T02:40:27.336Z,10.45
2023-01-13T02:43:20.373Z,10.47
2023-01-13T02:45:54.063Z,10.43
2023-01-13T02:48:25.081Z,10.41
2023-01-13T02:50:59.564Z,10.40
2023-01-13T02:53:32.074Z,10.46
2023-01-13T02:56:02.411Z,10.43
2023-01-13T02:58:33.132Z,10.53
2023-01-13T03:01:03.523Z,10.65
2023-01-13T03:03:33.646Z,10.68
2023-01-13T03:06:14.511Z,10.67
2023-01-13T03:08:47.862Z,10.59
2023-01-13T03:11:18.883Z,10.48
2023-01-13T03:14:08.292Z,10.35
2023-01-13T03:16:50.725Z,10.20
2023-01-13T03:19:32.997Z,10.10
2023-01-13T03:22:13.051Z,9.99
2023-01-13T03:24:46.660Z,9.91
2023-01-13T03:27:21.895Z,9.87
2023-01-13T03:29:55.485Z,9.82
2023-01-13T03:32:28.665Z,9.83
2023-01-13T03:35:02.420Z,9.81
2023-01-13T03:37:34.780Z,9.82
2023-01-13T03:40:09.189Z,9.81
2023-01-13T03:42:41.759Z,9.82
2023-01-13T03:45:10.867Z,9.76
2023-01-13T03:47:47.826Z,9.82
2023-01-13T03:50:22.007Z,9.86
2023-01-13T03:52:55.219Z,9.91
2023-01-13T03:55:30.020Z,9.94
2023-01-13T03:58:04.284Z,9.97
2023-01-13T04:00:39.195Z,10.01
2023-01-13T04:03:13.100Z,10.09
2023-01-13T04:05:45.329Z,10.14
2023-01-13T04:08:19.350Z,10.17
2023-01-13T04:10:54.711Z,10.18
2023-01-13T04:13:27.536Z,10.17
2023-01-13T04:15:56.272Z,10.20
2023-01-13T04:18:28.875Z,10.16
2023-01-13T04:20:59.455Z,10.18
2023-01-13T04:23:29.206Z,10.22
2023-01-13T04:25:58.446Z,10.21
2023-01-13T04:28:28.062Z,10.24
2023-01-13T04:30:56.491Z,10.26
2023-01-13T04:33:26.234Z,10.24
2023-01-13T04:35:55.321Z,10.29
2023-01-13T04:38:24.397Z,10.32
2023-01-13T04:40:53.070Z,10.31
2023-01-13T04:43:21.484Z,10.30
2023-01-13T04:45:49.918Z,10.28
2023-01-13T04:48:19.011Z,10.28
2023-01-13T04:50:48.879Z,10.31
2023-01-13T04:53:17.248Z,10.24
2023-01-13T04:55:47.980Z,10.22
2023-01-13T04:58:16.714Z,10.25
2023-01-13T05:00:45.222Z,10.31
2023-01-13T05:03:13.612Z,10.29
2023-01-13T05:05:42.312Z,10.25
2023-01-13T05:08:12.158Z,10.37
2023-01-13T05:10:40.801Z,10.40
2023-01-13T05:13:28.102Z,10.49
2023-01-13T05:16:19.351Z,10.53
2023-01-13T05:18:47.774Z,10.54
2023-01-13T05:21:29.875Z,10.55
2023-01-13T05:24:16.902Z,10.46
2023-01-13T05:26:45.272Z,10.32
2023-01-13T05:29:13.666Z,10.32
2023-01-13T05:31:42.076Z,10.30
2023-01-13T05:34:10.782Z,10.23
2023-01-13T05:36:39.206Z,10.19
2023-01-13T05:39:09.271Z,10.18
2023-01-13T05:41:55.237Z,10.12
2023-01-13T05:44:23.623Z,10.14
2023-01-13T05:46:52.339Z,10.21
2023-01-13T05:49:20.830Z,10.25
2023-01-13T05:51:49.239Z,10.29
2023-01-13T05:54:19.304Z,10.32
2023-01-13T05:56:47.637Z,10.33
2023-01-13T05:59:16.031Z,10.41
2023-01-13T06:01:44.767Z,10.41
2023-01-13T06:04:13.511Z,10.50
2023-01-13T06:06:43.589Z,10.56
2023-01-13T06:09:12.311Z,10.62
2023-01-13T06:11:42.387Z,10.54
2023-01-13T06:14:11.155Z,10.42
2023-01-13T06:16:39.511Z,10.24
2023-01-13T06:19:09.150Z,10.23
2023-01-13T06:21:38.954Z,10.16
2023-01-13T06:24:08.563Z,10.12
2023-01-13T06:26:40.459Z,10.04
2023-01-13T06:29:13.427Z,10.02
2023-01-13T06:31:41.904Z,9.98
2023-01-13T06:34:14.942Z,9.95
2023-01-13T06:36:47.489Z,9.99
2023-01-13T06:39:19.213Z,9.88
2023-01-13T06:42:08.411Z,9.94
2023-01-13T06:44:38.271Z,9.95
2023-01-13T06:47:07.633Z,9.98
2023-01-13T06:49:36.248Z,10.01
2023-01-13T06:52:04.940Z,10.06
2023-01-13T06:54:34.743Z,10.13
2023-01-13T06:57:03.465Z,10.16
2023-01-13T06:59:34.450Z,10.14
2023-01-13T07:02:05.202Z,10.18
2023-01-13T07:04:33.527Z,10.19
2023-01-13T07:07:01.866Z,10.20
2023-01-13T07:09:30.620Z,10.13
2023-01-13T07:11:59.293Z,10.06
2023-01-13T07:14:45.466Z,10.05
2023-01-13T07:17:15.327Z,10.03
2023-01-13T07:19:43.795Z,9.98
2023-01-13T07:22:15.285Z,10.02
2023-01-13T07:24:44.021Z,10.04
2023-01-13T07:27:12.380Z,10.09
2023-01-13T07:29:40.980Z,10.09
2023-01-13T07:32:09.784Z,10.24
2023-01-13T07:34:39.560Z,10.27
2023-01-13T08:02:16.006Z,9.92
2023-01-13T08:04:44.518Z,9.95
2023-01-13T08:07:13.210Z,10.00
2023-01-13T08:09:41.739Z,10.04
2023-01-13T08:12:27.683Z,10.06
2023-01-13T08:14:56.118Z,10.13
2023-01-13T08:17:25.879Z,10.18
2023-01-13T08:19:54.263Z,10.25
2023-01-13T08:22:24.039Z,10.33
2023-01-13T08:24:52.403Z,10.36
2023-01-13T08:27:21.341Z,10.38
2023-01-13T08:29:49.733Z,10.40
2023-01-13T08:32:18.163Z,10.42
2023-01-13T08:34:48.192Z,10.44
2023-01-13T08:37:17.056Z,10.46
2023-01-13T08:39:45.397Z,10.47
2023-01-13T08:42:14.397Z,10.50
2023-01-13T08:44:43.133Z,10.53
2023-01-13T08:47:11.419Z,10.50
2023-01-13T08:49:39.798Z,10.60
2023-01-13T08:52:09.621Z,10.74
2023-01-13T08:54:39.616Z,10.89
2023-01-13T08:57:08.379Z,10.98
2023-01-13T08:59:36.918Z,11.01
2023-01-13T09:02:05.505Z,11.04
2023-01-13T09:04:34.209Z,11.05
2023-01-13T09:07:03.034Z,11.07
2023-01-13T09:09:33.254Z,11.22
2023-01-13T09:12:21.132Z,11.43
2023-01-13T09:14:49.968Z,11.69
2023-01-13T09:17:18.709Z,12.29
2023-01-13T09:19:47.042Z,12.73
2023-01-13T09:22:17.598Z,12.98
2023-01-13T09:24:48.352Z,13.08
2023-01-13T09:27:17.411Z,12.96
2023-01-13T09:29:45.881Z,13.25
2023-01-13T09:32:16.002Z,13.64
2023-01-13T09:35:01.481Z,13.64
2023-01-13T09:37:34.239Z,13.78
2023-01-13T09:40:05.128Z,13.97
2023-01-13T09:43:00.872Z,14.18
2023-01-13T09:45:34.585Z,14.63
2023-01-13T09:48:10.238Z,15.10
2023-01-13T09:50:58.148Z,15.73
2023-01-13T09:53:33.150Z,16.26
2023-01-13T09:56:03.172Z,16.57
2023-01-13T09:58:31.981Z,16.97
2023-01-13T10:01:17.449Z,17.35
2023-01-13T10:03:49.191Z,17.73
2023-01-13T10:06:25.208Z,17.95
2023-01-13T10:08:53.667Z,18.16
2023-01-13T10:11:42.620Z,18.14
2023-01-13T10:14:19.648Z,17.89
2023-01-13T10:16:52.488Z,17.52
2023-01-13T10:19:27.760Z,17.23
2023-01-13T10:22:23.308Z,16.84
2023-01-13T10:25:18.489Z,16.96
2023-01-13T10:27:50.282Z,16.91
2023-01-13T10:30:22.003Z,16.70
2023-01-13T10:32:57.377Z,16.65
2023-01-13T10:35:52.009Z,16.30
2023-01-13T10:38:22.918Z,16.31
2023-01-13T10:40:54.082Z,16.72
2023-01-13T10:43:24.758Z,16.52
2023-01-13T10:45:57.840Z,16.39
2023-01-13T10:48:34.830Z,16.52
2023-01-13T10:51:22.117Z,16.32
2023-01-13T10:53:56.866Z,16.48
2023-01-13T10:56:28.305Z,16.63
2023-01-13T10:59:17.580Z,16.84
2023-01-13T11:02:01.168Z,17.09
2023-01-13T11:04:37.681Z,17.16
2023-01-13T11:07:17.985Z,17.17
2023-01-13T11:09:46.799Z,16.94
2023-01-13T13:45:19.892Z,14.47
2023-01-13T13:52:39.181Z,14.30
2023-01-13T14:14:36.565Z,13.66
2023-01-13T14:17:07.245Z,13.66
2023-01-13T14:20:05.924Z,13.59
2023-01-13T14:22:34.392Z,13.65
2023-01-13T15:07:17.527Z,13.15
2023-01-13T15:14:12.312Z,13.09
2023-01-13T15:16:40.527Z,13.08
2023-01-13T15:19:11.482Z,13.07
2023-01-13T15:21:39.702Z,13.01
2023-01-13T15:41:41.931Z,12.65
2023-01-13T15:44:32.427Z,12.58
2023-01-13T15:47:05.280Z,12.57
2023-01-13T15:49:37.850Z,12.54
2023-01-13T15:52:15.830Z,12.55
2023-01-13T15:54:44.102Z,12.59
2023-01-13T15:57:22.611Z,12.62
2023-01-13T15:59:52.207Z,12.62
2023-01-13T16:02:22.756Z,12.63
2023-01-13T16:04:54.123Z,12.64
2023-01-13T16:07:25.065Z,12.64
2023-01-13T16:09:54.324Z,12.64
2023-01-13T16:12:24.267Z,12.61
2023-01-13T16:14:53.021Z,12.58
2023-01-13T16:17:22.838Z,12.58
2023-01-13T16:20:04.521Z,12.59
2023-01-13T16:22:51.283Z,12.57
2023-01-13T16:25:39.103Z,12.52
2023-01-13T16:28:58.126Z,12.47
2023-01-13T16:32:01.535Z,12.48
2023-01-13T16:35:12.578Z,12.45
2023-01-13T16:38:06.877Z,12.39
2023-01-13T16:40:54.625Z,12.40
2023-01-13T16:43:39.328Z,12.40
2023-01-13T16:46:23.696Z,12.37
2023-01-13T16:48:57.451Z,12.32
2023-01-13T16:51:36.024Z,12.29
2023-01-13T16:54:04.385Z,12.26
2023-01-13T16:56:34.428Z,12.26
2023-01-13T16:59:08.773Z,12.27
2023-01-13T17:01:41.292Z,12.32
2023-01-13T17:04:16.419Z,12.33
2023-01-13T17:06:50.922Z,12.30
2023-01-13T17:09:22.502Z,12.29
2023-01-13T17:11:51.250Z,12.24
2023-01-13T17:14:23.370Z,12.26
2023-01-13T17:17:00.012Z,12.27
2023-01-13T17:19:28.982Z,12.19
2023-01-13T17:21:58.156Z,12.11
2023-01-13T17:24:28.941Z,12.04
2023-01-13T17:26:57.936Z,11.90
2023-01-13T17:29:27.773Z,11.82
2023-01-13T17:31:58.101Z,11.74
2023-01-13T17:34:26.505Z,11.66
2023-01-13T17:36:54.734Z,11.61
2023-01-13T17:39:25.283Z,11.51
2023-01-13T17:41:56.056Z,11.53
2023-01-13T17:44:24.462Z,11.49
2023-01-13T17:46:53.235Z,11.46
2023-01-13T17:49:23.424Z,11.43
2023-01-13T17:51:53.190Z,11.38
2023-01-13T17:54:21.788Z,11.34
2023-01-13T17:56:50.469Z,11.34
2023-01-13T17:59:20.807Z,11.34
2023-01-13T18:01:49.375Z,11.35
2023-01-13T18:04:19.543Z,11.39
2023-01-13T18:06:49.776Z,11.46
2023-01-13T18:09:19.169Z,11.53
2023-01-13T18:11:47.984Z,11.57
2023-01-13T18:14:16.538Z,11.63
2023-01-13T18:16:45.288Z,11.64
2023-01-13T18:19:31.235Z,11.66
2023-01-13T18:22:18.665Z,11.70
2023-01-13T18:25:04.519Z,11.69
2023-01-13T18:27:35.257Z,11.68
2023-01-13T18:30:05.241Z,11.71
2023-01-13T18:32:35.112Z,11.71
2023-01-13T18:35:07.181Z,11.70
2023-01-13T18:37:38.824Z,11.66
2023-01-13T18:40:09.451Z,11.66
2023-01-13T21:48:47.229Z,11.29
2023-01-13T21:51:15.591Z,11.34
2023-01-13T21:53:43.877Z,11.38
2023-01-13T21:56:12.280Z,11.39
2023-01-13T21:58:40.785Z,11.46
2023-01-13T22:01:10.051Z,11.53
2023-01-13T22:03:59.123Z,11.52
2023-01-13T22:06:28.913Z,11.60
2023-01-13T22:09:00.013Z,11.64
2023-01-13T22:11:28.411Z,11.71
2023-01-13T22:14:10.195Z,11.74
2023-01-13T22:19:39.378Z,11.77
2023-01-13T22:22:14.372Z,11.80
2023-01-13T22:24:44.387Z,11.80
2023-01-13T22:27:13.125Z,11.80
2023-01-13T22:29:41.530Z,11.91
2023-01-13T22:32:14.144Z,11.94
2023-01-13T22:34:43.169Z,11.97
2023-01-13T22:37:13.313Z,12.01
2023-01-13T22:39:41.828Z,12.02
2023-01-13T22:42:11.848Z,12.04
2023-01-13T22:44:40.555Z,12.08
2023-01-13T22:47:10.128Z,12.09
2023-01-13T22:49:38.578Z,12.12
2023-01-13T22:52:07.322Z,12.14
2023-01-13T22:54:37.079Z,12.11
2023-01-13T22:57:05.487Z,12.15
2023-01-13T22:59:33.996Z,12.17
2023-01-13T23:02:02.392Z,12.14
2023-01-13T23:04:32.311Z,12.15
2023-01-13T23:07:01.199Z,12.13
2023-01-13T23:09:31.044Z,12.16
2023-01-13T23:12:00.860Z,12.12
2023-01-13T23:14:30.689Z,12.17
2023-01-13T23:16:59.020Z,12.09
2023-01-13T23:19:27.353Z,12.15
2023-01-13T23:21:55.771Z,12.16
2023-01-13T23:24:26.679Z,12.07
2023-01-13T23:26:54.969Z,12.05
2023-01-13T23:29:24.737Z,12.04
2023-01-13T23:31:53.416Z,12.08
2023-01-13T23:34:21.773Z,12.11
2023-01-13T23:36:50.194Z,12.08
2023-01-13T23:39:18.574Z,11.98
2023-01-13T23:41:46.950Z,12.07
2023-01-13T23:44:15.326Z,12.10
2023-01-13T23:46:45.032Z,12.14
2023-01-13T23:49:13.982Z,12.02
2023-01-13T23:51:42.266Z,12.03
2023-01-13T23:54:10.827Z,12.05
2023-01-13T23:56:39.743Z,12.02
2023-01-13T23:59:09.546Z,12.03
